Airfield :
LOGIN :

Register | Disclaimer

   EN    FR    IT 

 










Legend :    VFR   Marginal VFR   IFR   Intensive IFR   Very Intensive IFR
Visi :
Ceiling :
>= 8 km
>= 3000ft
5 to 8 km
1000 to 3000 ft
1500m to 5 km
500 to 1000 ft
800 to 1500m
200 to 500 ft
< 800m
< 200 ft
Symbols :   Thunderstorms  Fog  Heavy snow  Heavy precipitations  Wind > 20 kt
SIGMETs :     Misc.  Thunderstorms  Icing  Turbulence  Mountain Waves  Volcanic Ashes







- Airport Elevation : -11 ft
- IATA code : AMS


EHAM - Amsterdam Schiphol

CURRENT METAR :
  • 260655Z 26017KT 230V290 9999 FEW015 SCT018 10/06 Q1013 NOSIG

EXPIRED METARs :
  • 260625Z 26016KT 220V300 9999 SCT015 09/06 Q1013 NOSIG
  • 260555Z 26016KT 230V290 9999 FEW015 09/06 Q1013 NOSIG
  • 260525Z 26015KT 9999 FEW015 09/06 Q1012 NOSIG
  • 260455Z 26014KT 9999 FEW012 08/06 Q1012 NOSIG
  • 260425Z 26015KT 9999 FEW014 08/06 Q1012 NOSIG

TAF TAF EHAM
Valid from the 26 at 06:00 until the 27 at 12:00 UTC


260432Z 2606/2712 26015KT 9999 FEW015
BECMG 2606/2608 26017G27KT
BECMG 2615/2618 23013KT
BECMG 2621/2624 21006KT
PROB30
TEMPO 2703/2708 6000 BKN006
No reported NOTAMs for that airfield.



MET'MAP, your aeronautical weather chart ! - Copyright ORBIFLY December 2007 - Disclaimer

ORBIFLY MET'MAP TEAM :

Programming & Development : Alexandra Zaïnal
Concept & Development : Baudouin d'Aumeries
Co-Development & Prog : Marc-Olivier Méhu
Technical & hardware support : Manuel Goepfert

Contact : metmap@orbifly.com




SOURCES & CREDITS :

   NOAA